Time;durP1;ratioP1;P1;durP2;ratioP2;P2;SDS_P1;SDS_P2;PMS_P1;PMS_P2;Temp;Humidity;BMP_temperature;BMP_pressure;BME280_temperature;BME280_humidity;BME280_pressure;Samples;Min_cycle;Max_cycle;Signal;HPM_P1;HPM_P2
2022/07/14 00:01:12;;;;;;;14.05;2.60;;;;;;;;;;5107338;28;20049;-61
2022/07/14 00:03:38;;;;;;;15.35;3.30;;;;;;;;;;5106653;28;20131;-61
2022/07/14 00:06:05;;;;;;;13.60;3.13;;;;;;;;;;5103847;28;20734;-61
2022/07/14 00:08:31;;;;;;;14.60;2.80;;;;;;;;;;5104800;28;20513;-61
2022/07/14 00:10:57;;;;;;;14.48;2.80;;;;;;;;;;5106763;28;20047;-61
2022/07/14 00:13:23;;;;;;;13.65;2.67;;;;;;;;;;5098692;28;20112;-61
2022/07/14 00:15:49;;;;;;;11.98;4.30;;;;;;;;;;5102413;28;20051;-61
2022/07/14 00:18:15;;;;;;;11.77;2.40;;;;;;;;;;5106552;28;20051;-61
2022/07/14 00:20:41;;;;;;;11.15;2.63;;;;;;;;;;5106785;28;20048;-61
2022/07/14 00:23:08;;;;;;;12.25;2.65;;;;;;;;;;5105400;28;20132;-61
2022/07/14 00:25:34;;;;;;;14.60;3.65;;;;;;;;;;5103898;28;20044;-61
2022/07/14 00:28:00;;;;;;;14.20;2.97;;;;;;;;;;5105851;28;20050;-60
2022/07/14 00:30:26;;;;;;;12.73;2.88;;;;;;;;;;5113887;28;20064;-61
2022/07/14 00:32:54;;;;;;;10.50;3.00;;;;;;;;;;5111145;28;20055;-61
2022/07/14 00:35:20;;;;;;;6.97;2.85;;;;;;;;;;5092599;28;20043;-61
2022/07/14 00:37:47;;;;;;;8.85;2.25;;;;;;;;;;5106396;28;20032;-61
2022/07/14 00:40:13;;;;;;;12.45;2.92;;;;;;;;;;5106321;28;20079;-61
2022/07/14 00:42:41;;;;;;;14.23;2.95;;;;;;;;;;5099710;28;20044;-61
2022/07/14 00:48:32;;;;;;;14.10;3.28;;;;;;;;;;5106175;28;20042;-61
2022/07/14 00:50:58;;;;;;;9.43;3.83;;;;;;;;;;5102395;28;20068;-61
2022/07/14 00:53:24;;;;;;;12.55;3.58;;;;;;;;;;5097660;28;20043;-61
2022/07/14 00:55:50;;;;;;;13.75;3.65;;;;;;;;;;5104901;28;20036;-61
2022/07/14 00:58:17;;;;;;;15.82;3.95;;;;;;;;;;5107856;28;20461;-61
2022/07/14 01:00:43;;;;;;;12.80;3.40;;;;;;;;;;5114450;28;20048;-61
2022/07/14 01:03:09;;;;;;;10.23;3.05;;;;;;;;;;5097901;28;20076;-60
2022/07/14 01:05:35;;;;;;;15.93;3.47;;;;;;;;;;5099446;28;20047;-61
2022/07/14 01:08:01;;;;;;;13.27;3.22;;;;;;;;;;5104733;28;20109;-61
2022/07/14 01:10:27;;;;;;;16.83;5.63;;;;;;;;;;5105237;28;20063;-61
2022/07/14 01:12:56;;;;;;;14.32;4.10;;;;;;;;;;5105431;28;20048;-61
2022/07/14 01:15:23;;;;;;;10.88;3.22;;;;;;;;;;5096035;28;20041;-62
2022/07/14 01:17:49;;;;;;;12.98;2.88;;;;;;;;;;5101631;28;20052;-61
2022/07/14 01:20:16;;;;;;;12.90;3.25;;;;;;;;;;5105741;28;20169;-61
2022/07/14 01:22:43;;;;;;;13.80;2.65;;;;;;;;;;5088571;28;20091;-61
2022/07/14 01:25:09;;;;;;;9.70;3.27;;;;;;;;;;5104252;28;20059;-61
2022/07/14 01:27:36;;;;;;;12.77;2.80;;;;;;;;;;5106477;28;20063;-61
2022/07/14 01:30:03;;;;;;;14.38;4.53;;;;;;;;;;5106424;28;20103;-61
2022/07/14 01:32:29;;;;;;;14.63;3.50;;;;;;;;;;5095040;28;20054;-61
2022/07/14 01:34:55;;;;;;;13.50;3.45;;;;;;;;;;5104127;28;20503;-61
2022/07/14 01:37:21;;;;;;;14.90;2.83;;;;;;;;;;5104198;28;20040;-61
2022/07/14 01:39:47;;;;;;;10.45;2.90;;;;;;;;;;5104399;28;20516;-61
2022/07/14 01:42:14;;;;;;;15.30;2.90;;;;;;;;;;5092916;28;20046;-61
2022/07/14 01:44:40;;;;;;;11.63;3.35;;;;;;;;;;5091900;28;20048;-61
2022/07/14 01:47:06;;;;;;;12.88;3.25;;;;;;;;;;5088695;28;20047;-61
2022/07/14 01:49:32;;;;;;;16.00;3.65;;;;;;;;;;5104090;28;20099;-61
2022/07/14 01:51:58;;;;;;;17.20;3.40;;;;;;;;;;5099937;28;20051;-61
2022/07/14 01:54:24;;;;;;;10.27;3.30;;;;;;;;;;5105134;28;20047;-61
2022/07/14 01:56:51;;;;;;;15.23;3.83;;;;;;;;;;5111105;28;20066;-62
2022/07/14 01:59:17;;;;;;;7.82;3.00;;;;;;;;;;5107333;28;20054;-62
2022/07/14 02:01:44;;;;;;;13.25;3.00;;;;;;;;;;5097508;28;20060;-61
2022/07/14 02:04:14;;;;;;;14.47;3.73;;;;;;;;;;5103384;28;20043;-61
2022/07/14 02:06:44;;;;;;;12.80;3.25;;;;;;;;;;5105131;28;20048;-61
2022/07/14 02:09:10;;;;;;;15.48;3.30;;;;;;;;;;5103201;28;20039;-61
2022/07/14 02:14:22;;;;;;;8.73;3.58;;;;;;;;;;5104772;28;20077;-60
2022/07/14 02:16:48;;;;;;;15.85;4.43;;;;;;;;;;5103345;28;20117;-61
2022/07/14 02:19:14;;;;;;;14.77;3.78;;;;;;;;;;5097688;28;20642;-61
2022/07/14 02:21:41;;;;;;;17.77;3.45;;;;;;;;;;5106128;28;20048;-61
2022/07/14 02:24:08;;;;;;;17.63;3.65;;;;;;;;;;5105006;28;20044;-61
2022/07/14 02:26:34;;;;;;;18.25;6.22;;;;;;;;;;5104728;28;20091;-61
2022/07/14 02:29:01;;;;;;;11.20;3.20;;;;;;;;;;5097175;28;20048;-61
2022/07/14 02:31:27;;;;;;;14.85;4.25;;;;;;;;;;5099728;28;20044;-61
2022/07/14 02:33:53;;;;;;;9.05;3.53;;;;;;;;;;5101221;28;20044;-61
2022/07/14 02:36:19;;;;;;;14.77;3.85;;;;;;;;;;5089501;28;20047;-60
2022/07/14 02:38:45;;;;;;;13.75;3.80;;;;;;;;;;5100577;28;20036;-60
2022/07/14 02:41:11;;;;;;;15.68;4.07;;;;;;;;;;5101209;28;20036;-61
2022/07/14 02:43:37;;;;;;;12.55;4.57;;;;;;;;;;5107476;28;20070;-61
2022/07/14 02:46:04;;;;;;;26.45;4.03;;;;;;;;;;5105573;28;20036;-61
2022/07/14 02:48:30;;;;;;;9.93;3.67;;;;;;;;;;5107088;28;20044;-61
2022/07/14 02:51:15;;;;;;;13.57;3.92;;;;;;;;;;5119712;28;20044;-61
2022/07/14 02:53:41;;;;;;;11.65;3.97;;;;;;;;;;5098909;28;20051;-61
2022/07/14 02:56:08;;;;;;;16.58;4.38;;;;;;;;;;5091128;28;20067;-61
2022/07/14 02:58:34;;;;;;;21.13;3.90;;;;;;;;;;5108257;28;20048;-61
2022/07/14 03:01:04;;;;;;;17.55;3.70;;;;;;;;;;5108333;28;20039;-61
2022/07/14 03:03:30;;;;;;;14.50;4.50;;;;;;;;;;5106678;28;20052;-61
2022/07/14 03:05:56;;;;;;;13.02;4.10;;;;;;;;;;5105408;28;20044;-61
2022/07/14 03:08:22;;;;;;;14.32;3.58;;;;;;;;;;5105794;28;20040;-61
2022/07/14 03:10:49;;;;;;;15.00;4.53;;;;;;;;;;5108120;28;20134;-61
2022/07/14 03:13:15;;;;;;;15.93;4.18;;;;;;;;;;5104887;28;20132;-62
2022/07/14 03:15:41;;;;;;;9.95;3.97;;;;;;;;;;5106613;28;20063;-62
2022/07/14 03:18:07;;;;;;;14.60;4.72;;;;;;;;;;5107581;28;20096;-62
2022/07/14 03:20:33;;;;;;;12.05;3.80;;;;;;;;;;5094846;28;20055;-61
2022/07/14 03:22:59;;;;;;;17.85;5.18;;;;;;;;;;5094632;28;20119;-62
2022/07/14 03:25:26;;;;;;;13.07;3.67;;;;;;;;;;5096969;28;20054;-62
2022/07/14 03:27:53;;;;;;;11.32;3.88;;;;;;;;;;5105985;28;20044;-61
2022/07/14 03:30:19;;;;;;;7.97;3.45;;;;;;;;;;5094196;28;20089;-61
2022/07/14 03:32:45;;;;;;;13.38;3.78;;;;;;;;;;5103488;28;20047;-61
2022/07/14 03:35:11;;;;;;;14.32;3.20;;;;;;;;;;5087335;28;20056;-61
2022/07/14 03:37:38;;;;;;;11.30;3.38;;;;;;;;;;5095427;28;20040;-61
2022/07/14 03:40:04;;;;;;;14.38;3.67;;;;;;;;;;5105523;28;20052;-61
2022/07/14 03:42:30;;;;;;;16.63;4.15;;;;;;;;;;5106210;28;20120;-61
2022/07/14 03:44:57;;;;;;;12.07;3.30;;;;;;;;;;5107307;28;20123;-62
2022/07/14 03:47:23;;;;;;;6.80;3.20;;;;;;;;;;5107130;28;20040;-61
2022/07/14 03:49:49;;;;;;;14.02;4.05;;;;;;;;;;5107518;28;20054;-61
2022/07/14 03:52:16;;;;;;;11.88;4.28;;;;;;;;;;5105748;28;20055;-61
2022/07/14 03:54:45;;;;;;;28.20;4.97;;;;;;;;;;5095266;28;20036;-61
2022/07/14 03:57:12;;;;;;;10.30;3.28;;;;;;;;;;5099671;28;20065;-61
2022/07/14 03:59:41;;;;;;;8.43;3.25;;;;;;;;;;5106593;28;20056;-61
2022/07/14 04:02:11;;;;;;;7.80;3.10;;;;;;;;;;5104646;28;20043;-61
2022/07/14 04:04:37;;;;;;;10.75;3.25;;;;;;;;;;5099437;28;20040;-61
2022/07/14 04:07:04;;;;;;;11.60;4.32;;;;;;;;;;5095894;28;20073;-61
2022/07/14 04:09:30;;;;;;;11.90;2.72;;;;;;;;;;5102548;28;20309;-62
2022/07/14 04:11:56;;;;;;;11.23;2.92;;;;;;;;;;5105205;28;20093;-61
2022/07/14 04:14:23;;;;;;;9.88;2.97;;;;;;;;;;5101936;28;20048;-61
2022/07/14 04:16:49;;;;;;;8.23;3.07;;;;;;;;;;5089305;28;20053;-61
2022/07/14 04:19:16;;;;;;;10.65;2.97;;;;;;;;;;5097766;28;20046;-61
2022/07/14 04:21:42;;;;;;;13.85;3.10;;;;;;;;;;5101580;28;20153;-61
2022/07/14 04:24:08;;;;;;;15.32;2.58;;;;;;;;;;5109015;28;20439;-61
2022/07/14 04:26:37;;;;;;;10.10;2.65;;;;;;;;;;5113367;28;20048;-62
2022/07/14 04:29:03;;;;;;;11.50;3.20;;;;;;;;;;5106296;28;20059;-62
2022/07/14 04:31:29;;;;;;;12.55;2.70;;;;;;;;;;5096880;28;20072;-61
2022/07/14 04:33:55;;;;;;;10.60;2.65;;;;;;;;;;5106172;28;20055;-62
2022/07/14 04:36:22;;;;;;;9.90;1.88;;;;;;;;;;5106120;28;20514;-61
2022/07/14 04:38:48;;;;;;;6.83;2.27;;;;;;;;;;5103357;28;20048;-62
2022/07/14 04:41:15;;;;;;;7.70;2.13;;;;;;;;;;5103709;28;20302;-61
2022/07/14 04:43:41;;;;;;;6.07;1.75;;;;;;;;;;5091443;28;20106;-61
2022/07/14 04:46:08;;;;;;;7.78;2.03;;;;;;;;;;5084609;28;20036;-62
2022/07/14 04:54:04;;;;;;;7.00;2.22;;;;;;;;;;5103843;28;20050;-61
2022/07/14 04:56:30;;;;;;;5.25;1.83;;;;;;;;;;5109091;28;20104;-61
2022/07/14 04:58:57;;;;;;;11.85;2.20;;;;;;;;;;5085637;28;20041;-61
2022/07/14 05:01:23;;;;;;;6.50;1.63;;;;;;;;;;5084235;28;20505;-61
2022/07/14 05:03:49;;;;;;;9.23;1.67;;;;;;;;;;5094674;28;20044;-61
2022/07/14 05:06:16;;;;;;;9.05;3.17;;;;;;;;;;5105882;28;20468;-62
2022/07/14 05:08:42;;;;;;;15.68;2.60;;;;;;;;;;5104261;28;20047;-61
2022/07/14 05:11:08;;;;;;;7.05;1.92;;;;;;;;;;5105389;28;20097;-63
2022/07/14 05:13:35;;;;;;;7.70;1.60;;;;;;;;;;5101996;28;20529;-61
2022/07/14 05:16:01;;;;;;;11.65;1.90;;;;;;;;;;5100150;28;20040;-61
2022/07/14 05:18:28;;;;;;;3.70;1.23;;;;;;;;;;5078217;28;20071;-61
2022/07/14 05:20:55;;;;;;;5.60;1.33;;;;;;;;;;5102847;28;20099;-61
2022/07/14 05:23:21;;;;;;;8.02;1.90;;;;;;;;;;5107929;28;20044;-61
2022/07/14 05:25:48;;;;;;;7.35;2.00;;;;;;;;;;5091647;28;20492;-61
2022/07/14 05:28:14;;;;;;;11.15;1.60;;;;;;;;;;5098708;28;20131;-61
2022/07/14 05:30:40;;;;;;;9.35;1.70;;;;;;;;;;5097820;28;20107;-62
2022/07/14 05:33:07;;;;;;;11.43;2.38;;;;;;;;;;5101758;28;20047;-61
2022/07/14 05:35:33;;;;;;;5.03;1.40;;;;;;;;;;5103556;28;20048;-61
2022/07/14 05:37:59;;;;;;;9.27;2.10;;;;;;;;;;5105111;28;20058;-61
2022/07/14 05:40:25;;;;;;;9.77;2.22;;;;;;;;;;5104627;28;20114;-61
2022/07/14 05:42:52;;;;;;;10.85;1.65;;;;;;;;;;5096844;28;20104;-61
2022/07/14 05:45:18;;;;;;;8.23;1.90;;;;;;;;;;5115978;28;20031;-61
2022/07/14 05:47:44;;;;;;;9.30;1.92;;;;;;;;;;5084069;28;20049;-61
2022/07/14 05:50:10;;;;;;;4.43;1.50;;;;;;;;;;5084817;28;20040;-61
2022/07/14 05:52:36;;;;;;;18.00;3.78;;;;;;;;;;5088931;28;20107;-61
2022/07/14 05:55:03;;;;;;;10.98;1.80;;;;;;;;;;5117018;28;20036;-61
2022/07/14 05:57:29;;;;;;;9.38;1.50;;;;;;;;;;5095064;28;20052;-61
2022/07/14 05:59:55;;;;;;;10.02;1.48;;;;;;;;;;5092725;28;20052;-61
2022/07/14 06:02:21;;;;;;;8.18;1.52;;;;;;;;;;5103362;28;20051;-62
2022/07/14 06:04:47;;;;;;;8.43;1.63;;;;;;;;;;5092833;28;20047;-62
2022/07/14 06:07:13;;;;;;;7.25;1.58;;;;;;;;;;5100625;28;20040;-62
2022/07/14 06:09:40;;;;;;;6.18;1.40;;;;;;;;;;5112370;28;20048;-62
2022/07/14 06:12:07;;;;;;;2.28;1.33;;;;;;;;;;5102632;28;20519;-62
2022/07/14 06:14:34;;;;;;;7.95;1.33;;;;;;;;;;5095131;28;20052;-62
2022/07/14 06:17:00;;;;;;;6.85;1.30;;;;;;;;;;5090148;28;20048;-62
2022/07/14 06:19:26;;;;;;;11.82;2.20;;;;;;;;;;5095691;28;20500;-62
2022/07/14 06:21:52;;;;;;;9.80;2.17;;;;;;;;;;5110403;27;20044;-62
2022/07/14 06:24:18;;;;;;;3.80;1.20;;;;;;;;;;5104850;28;20042;-62
2022/07/14 06:26:45;;;;;;;6.03;1.55;;;;;;;;;;5112441;28;20118;-62
2022/07/14 06:29:11;;;;;;;8.48;1.77;;;;;;;;;;5108768;27;20068;-62
2022/07/14 06:31:38;;;;;;;6.03;1.23;;;;;;;;;;5104586;28;20071;-62
2022/07/14 06:34:04;;;;;;;6.90;1.27;;;;;;;;;;5089165;28;20084;-62
2022/07/14 06:36:31;;;;;;;5.78;1.60;;;;;;;;;;5090941;28;20119;-62
2022/07/14 06:38:58;;;;;;;5.13;1.20;;;;;;;;;;5091054;28;20123;-63
2022/07/14 06:41:24;;;;;;;7.60;1.40;;;;;;;;;;5099788;28;20182;-62
2022/07/14 06:43:50;;;;;;;6.82;1.95;;;;;;;;;;5094840;28;20052;-63
2022/07/14 06:46:17;;;;;;;11.63;1.77;;;;;;;;;;5098634;28;20101;-63
2022/07/14 06:48:43;;;;;;;6.93;1.13;;;;;;;;;;5094762;28;20056;-62
2022/07/14 06:51:10;;;;;;;8.57;1.20;;;;;;;;;;5089532;28;20044;-63
2022/07/14 06:53:37;;;;;;;9.02;1.05;;;;;;;;;;5089385;28;20496;-62
2022/07/14 06:56:03;;;;;;;2.47;1.00;;;;;;;;;;5117726;28;20045;-61
2022/07/14 06:58:30;;;;;;;5.20;1.33;;;;;;;;;;5090476;28;20059;-62
2022/07/14 07:00:56;;;;;;;5.47;1.20;;;;;;;;;;5090530;28;20174;-62
2022/07/14 07:03:22;;;;;;;10.05;1.83;;;;;;;;;;5090004;28;20040;-62
2022/07/14 07:08:33;;;;;;;5.88;1.30;;;;;;;;;;5090752;28;20071;-62
2022/07/14 07:10:59;;;;;;;8.35;1.20;;;;;;;;;;5090492;28;20564;-62
2022/07/14 07:13:26;;;;;;;5.32;0.88;;;;;;;;;;5103554;28;20123;-62
2022/07/14 07:15:53;;;;;;;3.83;0.80;;;;;;;;;;5110749;28;20078;-62
2022/07/14 07:18:19;;;;;;;4.60;1.10;;;;;;;;;;5110253;28;20062;-61
2022/07/14 07:20:45;;;;;;;6.72;1.58;;;;;;;;;;5111771;28;20044;-63
2022/07/14 07:23:11;;;;;;;3.78;0.57;;;;;;;;;;5110134;28;20040;-63
2022/07/14 07:25:38;;;;;;;2.20;0.68;;;;;;;;;;5101521;28;20044;-63
2022/07/14 07:28:04;;;;;;;6.15;1.33;;;;;;;;;;5110209;28;20052;-64
2022/07/14 07:30:30;;;;;;;4.50;0.80;;;;;;;;;;5105551;28;20099;-64
2022/07/14 07:32:57;;;;;;;5.57;0.98;;;;;;;;;;5102825;28;20172;-62
2022/07/14 07:35:23;;;;;;;2.83;0.60;;;;;;;;;;5104071;28;20036;-63
2022/07/14 07:37:49;;;;;;;3.60;0.90;;;;;;;;;;5104657;28;20549;-63
2022/07/14 07:40:16;;;;;;;3.08;0.98;;;;;;;;;;5105940;28;20032;-62
2022/07/14 07:42:42;;;;;;;4.83;1.50;;;;;;;;;;5106617;28;20059;-62
2022/07/14 07:45:08;;;;;;;2.88;0.60;;;;;;;;;;5101618;28;20278;-63
2022/07/14 07:47:35;;;;;;;3.40;1.52;;;;;;;;;;5097240;28;20044;-64
2022/07/14 07:50:01;;;;;;;3.90;0.60;;;;;;;;;;5107239;28;20115;-63
2022/07/14 07:52:27;;;;;;;4.47;0.80;;;;;;;;;;5105540;28;20052;-63
2022/07/14 07:54:54;;;;;;;3.28;0.88;;;;;;;;;;5105923;28;20071;-63
2022/07/14 07:57:20;;;;;;;3.20;0.47;;;;;;;;;;5106242;28;20071;-63
2022/07/14 07:59:49;;;;;;;4.13;0.85;;;;;;;;;;5107094;28;20059;-63
2022/07/14 08:02:15;;;;;;;1.75;0.50;;;;;;;;;;5107642;28;20078;-63
2022/07/14 08:04:42;;;;;;;4.60;0.87;;;;;;;;;;5105523;28;20127;-64
2022/07/14 08:07:08;;;;;;;8.45;1.48;;;;;;;;;;5100000;28;20083;-63
2022/07/14 08:09:34;;;;;;;5.22;1.20;;;;;;;;;;5106694;28;20040;-63
2022/07/14 08:12:00;;;;;;;6.72;1.00;;;;;;;;;;5106356;28;20713;-63
2022/07/14 08:17:11;;;;;;;4.45;1.38;;;;;;;;;;5105954;28;20044;-64
2022/07/14 08:19:37;;;;;;;4.68;0.63;;;;;;;;;;5106173;28;20040;-63
2022/07/14 08:22:03;;;;;;;2.92;0.68;;;;;;;;;;5106121;28;20067;-63
2022/07/14 08:24:29;;;;;;;3.85;0.65;;;;;;;;;;5100942;28;20099;-62
2022/07/14 08:26:56;;;;;;;4.22;1.00;;;;;;;;;;5106427;28;20040;-63
2022/07/14 08:29:22;;;;;;;2.90;1.13;;;;;;;;;;5096734;28;20416;-63
2022/07/14 08:31:49;;;;;;;3.28;0.55;;;;;;;;;;5105328;28;20104;-63
2022/07/14 08:34:15;;;;;;;1.60;0.50;;;;;;;;;;5108366;28;20447;-63
2022/07/14 08:36:41;;;;;;;4.75;0.68;;;;;;;;;;5105715;28;20063;-63
2022/07/14 08:39:08;;;;;;;3.15;0.70;;;;;;;;;;5103657;28;20072;-64
2022/07/14 08:41:35;;;;;;;4.03;0.80;;;;;;;;;;5105831;28;20055;-63
2022/07/14 08:44:02;;;;;;;3.38;0.90;;;;;;;;;;5088431;28;20051;-62
2022/07/14 08:46:30;;;;;;;8.18;1.00;;;;;;;;;;5095309;28;20055;-64
2022/07/14 08:48:57;;;;;;;5.72;1.25;;;;;;;;;;5102577;28;20073;-62
2022/07/14 08:51:24;;;;;;;5.13;0.95;;;;;;;;;;5091641;28;20032;-62
2022/07/14 08:53:50;;;;;;;;;;;;;;;;;;5102146;28;20044;-63
2022/07/14 08:56:16;;;;;;;2.30;0.60;;;;;;;;;;5085248;28;19932;-63
2022/07/14 08:58:44;;;;;;;2.65;0.57;;;;;;;;;;5087173;28;20041;-64
2022/07/14 09:01:10;;;;;;;1.85;0.68;;;;;;;;;;5085421;28;20045;-63
2022/07/14 09:03:37;;;;;;;2.00;0.70;;;;;;;;;;5084684;28;20076;-63
2022/07/14 09:06:05;;;;;;;2.45;0.38;;;;;;;;;;5088322;28;20044;-63
2022/07/14 09:08:51;;;;;;;2.55;0.80;;;;;;;;;;5084199;28;20109;-63
2022/07/14 09:11:18;;;;;;;1.48;0.35;;;;;;;;;;5086119;28;20051;-62
2022/07/14 09:13:44;;;;;;;1.23;0.40;;;;;;;;;;5093036;28;20145;-63
2022/07/14 09:16:23;;;;;;;4.72;0.70;;;;;;;;;;5098649;28;20029;-63
2022/07/14 09:19:09;;;;;;;3.50;0.75;;;;;;;;;;5091663;28;20177;-64
2022/07/14 09:21:37;;;;;;;1.73;0.63;;;;;;;;;;5095645;28;20059;-64
2022/07/14 09:24:05;;;;;;;2.33;0.47;;;;;;;;;;5105384;28;20036;-63
2022/07/14 09:26:33;;;;;;;5.88;1.02;;;;;;;;;;5102888;28;20043;-63
2022/07/14 09:29:00;;;;;;;2.22;0.65;;;;;;;;;;5104825;28;21405;-62
2022/07/14 09:31:26;;;;;;;4.15;0.90;;;;;;;;;;5095205;28;20469;-63
2022/07/14 09:33:57;;;;;;;3.33;0.90;;;;;;;;;;5100233;28;20435;-62
2022/07/14 09:36:26;;;;;;;2.70;0.60;;;;;;;;;;5098292;28;20616;-62
2022/07/14 09:38:52;;;;;;;1.80;0.50;;;;;;;;;;5104988;28;20052;-63
2022/07/14 09:41:19;;;;;;;4.68;0.55;;;;;;;;;;5103922;28;20095;-63
2022/07/14 09:43:45;;;;;;;;;;;;;;;;;;5097853;28;20059;-63
2022/07/14 09:46:12;;;;;;;6.60;0.70;;;;;;;;;;5104560;28;19924;-63
2022/07/14 09:48:38;;;;;;;3.47;0.80;;;;;;;;;;5100892;28;20072;-63
2022/07/14 09:51:05;;;;;;;2.78;0.70;;;;;;;;;;5104527;28;20051;-63
2022/07/14 09:53:32;;;;;;;3.90;0.68;;;;;;;;;;5102549;28;20499;-63
2022/07/14 09:56:03;;;;;;;3.60;0.95;;;;;;;;;;5103238;28;20094;-64
2022/07/14 09:58:54;;;;;;;2.08;0.47;;;;;;;;;;5103246;28;20052;-63
2022/07/14 10:01:21;;;;;;;2.33;0.70;;;;;;;;;;5099799;28;20042;-64
2022/07/14 10:03:48;;;;;;;5.78;0.65;;;;;;;;;;5131061;27;20048;-63
2022/07/14 10:06:15;;;;;;;2.58;0.82;;;;;;;;;;5103496;28;20032;-64
2022/07/14 10:08:43;;;;;;;6.40;1.25;;;;;;;;;;5098078;28;20073;-64
2022/07/14 10:11:13;;;;;;;3.38;0.85;;;;;;;;;;5104904;28;20197;-64
2022/07/14 10:13:40;;;;;;;1.40;0.43;;;;;;;;;;5111898;28;20081;-63
2022/07/14 10:16:06;;;;;;;2.97;0.70;;;;;;;;;;5100232;28;20040;-63
2022/07/14 10:18:33;;;;;;;4.63;0.97;;;;;;;;;;5104546;28;20140;-64
2022/07/14 10:20:59;;;;;;;4.07;0.85;;;;;;;;;;5108694;28;20040;-63
2022/07/14 10:23:29;;;;;;;4.90;0.63;;;;;;;;;;5106068;28;20062;-63
2022/07/14 10:25:59;;;;;;;2.40;0.93;;;;;;;;;;5106364;28;20043;-63
2022/07/14 10:28:26;;;;;;;2.72;0.52;;;;;;;;;;5105650;28;20046;-64
2022/07/14 10:31:12;;;;;;;3.95;0.80;;;;;;;;;;5096922;28;20104;-65
2022/07/14 10:33:57;;;;;;;4.35;0.80;;;;;;;;;;5089092;28;20056;-64
2022/07/14 10:36:33;;;;;;;3.22;0.70;;;;;;;;;;5099337;28;20088;-64
2022/07/14 10:39:06;;;;;;;3.13;0.88;;;;;;;;;;5098270;28;20752;-63
2022/07/14 10:41:35;;;;;;;3.15;0.60;;;;;;;;;;5089343;28;20051;-63
2022/07/14 10:44:07;;;;;;;5.55;0.70;;;;;;;;;;5084164;28;20060;-63
2022/07/14 10:46:38;;;;;;;2.90;0.60;;;;;;;;;;5087994;28;20389;-64
2022/07/14 10:49:06;;;;;;;2.03;0.73;;;;;;;;;;5100823;28;20040;-63
2022/07/14 10:51:32;;;;;;;4.15;0.82;;;;;;;;;;5111172;28;20058;-63
2022/07/14 10:54:08;;;;;;;2.15;0.60;;;;;;;;;;5102789;28;20286;-63
2022/07/14 10:56:35;;;;;;;2.88;0.90;;;;;;;;;;5093711;28;20064;-62
2022/07/14 10:59:20;;;;;;;3.70;0.93;;;;;;;;;;5084943;28;20108;-71
2022/07/14 11:02:21;;;;;;;5.68;0.93;;;;;;;;;;5096173;28;20049;-69
2022/07/14 11:05:06;;;;;;;7.32;1.17;;;;;;;;;;5044511;28;20058;-69
2022/07/14 11:07:35;;;;;;;5.00;0.70;;;;;;;;;;5057771;28;20571;-68
2022/07/14 11:10:04;;;;;;;2.95;0.65;;;;;;;;;;5046046;28;20041;-71
2022/07/14 11:12:30;;;;;;;2.92;0.80;;;;;;;;;;5064544;28;20053;-68
2022/07/14 11:14:57;;;;;;;4.43;0.90;;;;;;;;;;5046469;28;20140;-69
2022/07/14 11:17:37;;;;;;;2.20;0.75;;;;;;;;;;5062244;28;20057;-69
2022/07/14 11:20:04;;;;;;;1.88;0.75;;;;;;;;;;5045483;28;20511;-68
2022/07/14 11:22:31;;;;;;;5.47;1.10;;;;;;;;;;5063119;28;20480;-69
2022/07/14 11:24:58;;;;;;;3.00;0.63;;;;;;;;;;5046075;28;20151;-68
2022/07/14 11:27:43;;;;;;;2.95;1.25;;;;;;;;;;5067398;28;20045;-68
2022/07/14 11:30:24;;;;;;;9.15;1.15;;;;;;;;;;5061318;28;20424;-67
2022/07/14 11:33:01;;;;;;;2.95;0.70;;;;;;;;;;5043987;28;20530;-67
2022/07/14 11:38:30;;;;;;;3.38;0.93;;;;;;;;;;5065427;28;20080;-67
2022/07/14 11:40:56;;;;;;;2.80;0.77;;;;;;;;;;5091507;28;20052;-68
2022/07/14 11:43:29;;;;;;;12.45;1.15;;;;;;;;;;5100891;28;20047;-67
2022/07/14 11:45:56;;;;;;;2.78;0.57;;;;;;;;;;5101737;28;20076;-67
2022/07/14 11:48:22;;;;;;;;;;;;;;;;;;5086737;28;20467;-66
2022/07/14 11:50:48;;;;;;;3.17;0.85;;;;;;;;;;5100974;28;19947;-66
2022/07/14 11:53:16;;;;;;;5.35;0.70;;;;;;;;;;5100377;28;20123;-65
2022/07/14 11:55:42;;;;;;;;;;;;;;;;;;5090237;28;20129;-65
2022/07/14 11:58:08;;;;;;;2.58;0.80;;;;;;;;;;5097432;28;19971;-66
2022/07/14 12:00:35;;;;;;;2.23;0.60;;;;;;;;;;5105033;28;20123;-65
2022/07/14 12:03:03;;;;;;;2.20;0.63;;;;;;;;;;5092090;28;20124;-65
2022/07/14 12:05:31;;;;;;;1.23;0.43;;;;;;;;;;5098058;28;20134;-66
2022/07/14 12:08:02;;;;;;;5.47;1.00;;;;;;;;;;5087907;28;20055;-64
2022/07/14 12:10:41;;;;;;;6.28;0.95;;;;;;;;;;5098019;28;20048;-65
2022/07/14 12:13:08;;;;;;;2.88;0.90;;;;;;;;;;5092255;28;20132;-66
2022/07/14 12:15:34;;;;;;;5.33;0.70;;;;;;;;;;5087491;28;20052;-64
2022/07/14 12:18:01;;;;;;;2.45;0.80;;;;;;;;;;5088411;28;20040;-65
2022/07/14 12:20:35;;;;;;;4.07;1.20;;;;;;;;;;5103088;28;20082;-64
2022/07/14 12:23:02;;;;;;;3.13;0.50;;;;;;;;;;5108388;28;20121;-65
2022/07/14 12:25:42;;;;;;;3.72;0.57;;;;;;;;;;5105691;28;20290;-65
2022/07/14 12:28:12;;;;;;;2.95;0.98;;;;;;;;;;5102803;28;20044;-65
2022/07/14 12:30:43;;;;;;;2.75;0.82;;;;;;;;;;5095818;28;20046;-59
2022/07/14 12:33:09;;;;;;;2.58;1.10;;;;;;;;;;5085220;28;20052;-64
2022/07/14 12:35:36;;;;;;;3.05;0.57;;;;;;;;;;5085608;28;20120;-64
2022/07/14 12:38:02;;;;;;;4.17;1.00;;;;;;;;;;5090377;28;20051;-64
2022/07/14 12:40:28;;;;;;;1.90;0.60;;;;;;;;;;5096792;28;20495;-64
2022/07/14 12:42:55;;;;;;;4.03;1.05;;;;;;;;;;5097040;28;20044;-64
2022/07/14 12:45:21;;;;;;;4.43;0.80;;;;;;;;;;5087140;28;20051;-66
2022/07/14 12:47:51;;;;;;;3.15;0.57;;;;;;;;;;5105335;28;20055;-65
2022/07/14 12:50:27;;;;;;;3.42;1.10;;;;;;;;;;5103784;28;20051;-65
2022/07/14 12:52:54;;;;;;;3.67;0.52;;;;;;;;;;5093391;28;20093;-64
2022/07/14 12:55:30;;;;;;;1.52;0.60;;;;;;;;;;5099837;28;20040;-64
2022/07/14 12:58:02;;;;;;;3.67;0.73;;;;;;;;;;5104148;28;20044;-64
2022/07/14 13:00:30;;;;;;;2.38;0.68;;;;;;;;;;5105918;28;20503;-64
2022/07/14 13:03:15;;;;;;;6.25;1.17;;;;;;;;;;5104967;28;20036;-64
2022/07/14 13:05:48;;;;;;;2.30;0.77;;;;;;;;;;5099580;28;20081;-64
2022/07/14 13:08:35;;;;;;;3.38;0.70;;;;;;;;;;5097094;28;20570;-64
2022/07/14 13:11:01;;;;;;;3.58;0.75;;;;;;;;;;5101001;28;20047;-64
2022/07/14 13:13:32;;;;;;;4.13;1.10;;;;;;;;;;5099077;28;20214;-64
2022/07/14 13:16:17;;;;;;;5.18;0.82;;;;;;;;;;5107337;28;20288;-64
2022/07/14 13:19:01;;;;;;;2.63;0.77;;;;;;;;;;5100768;28;20047;-64
2022/07/14 13:21:50;;;;;;;4.15;1.02;;;;;;;;;;5099542;28;20114;-64
2022/07/14 13:24:21;;;;;;;8.38;1.48;;;;;;;;;;5091869;28;20040;-64
2022/07/14 13:27:05;;;;;;;5.05;0.80;;;;;;;;;;5103903;28;20262;-63
2022/07/14 13:29:33;;;;;;;3.63;0.60;;;;;;;;;;5101979;28;20492;-64
2022/07/14 13:31:59;;;;;;;6.65;0.77;;;;;;;;;;5103862;28;20133;-63
2022/07/14 13:34:25;;;;;;;4.65;0.80;;;;;;;;;;5097566;28;20069;-64
2022/07/14 13:36:53;;;;;;;3.78;0.93;;;;;;;;;;5104280;28;20048;-64
2022/07/14 13:39:19;;;;;;;4.00;1.17;;;;;;;;;;5101997;28;20058;-65
2022/07/14 13:41:45;;;;;;;6.63;0.90;;;;;;;;;;5103570;28;20047;-66
2022/07/14 13:44:11;;;;;;;4.32;1.15;;;;;;;;;;5104204;28;20036;-64
2022/07/14 13:46:38;;;;;;;3.80;1.33;;;;;;;;;;5102672;28;20107;-64
2022/07/14 13:49:04;;;;;;;3.85;0.93;;;;;;;;;;5100221;28;20040;-64
2022/07/14 13:54:15;;;;;;;4.45;1.10;;;;;;;;;;5102167;28;20036;-65
2022/07/14 13:56:41;;;;;;;3.10;0.93;;;;;;;;;;5103098;28;20054;-64
2022/07/14 13:59:12;;;;;;;3.75;0.68;;;;;;;;;;5101502;28;20048;-65
2022/07/14 14:01:38;;;;;;;5.28;1.15;;;;;;;;;;5103246;28;20044;-64
2022/07/14 14:04:04;;;;;;;4.78;1.00;;;;;;;;;;5102569;28;20574;-65
2022/07/14 14:06:31;;;;;;;4.78;1.05;;;;;;;;;;5110883;28;20055;-63
2022/07/14 14:08:58;;;;;;;2.67;0.82;;;;;;;;;;5100003;28;20036;-64
2022/07/14 14:11:24;;;;;;;3.72;0.75;;;;;;;;;;5112263;28;20083;-64
2022/07/14 14:13:50;;;;;;;3.92;0.57;;;;;;;;;;5104126;28;20056;-64
2022/07/14 14:16:16;;;;;;;2.57;0.70;;;;;;;;;;5103941;28;20068;-66
2022/07/14 14:18:43;;;;;;;4.22;0.52;;;;;;;;;;5103382;28;20086;-64
2022/07/14 14:21:10;;;;;;;5.32;1.55;;;;;;;;;;5109503;28;20060;-64
2022/07/14 14:23:36;;;;;;;3.75;0.90;;;;;;;;;;5101426;28;20115;-64
2022/07/14 14:26:04;;;;;;;3.25;1.00;;;;;;;;;;5106036;28;20044;-64
2022/07/14 14:28:30;;;;;;;5.30;0.80;;;;;;;;;;5102514;28;20351;-64
2022/07/14 14:30:56;;;;;;;2.75;0.63;;;;;;;;;;5098136;28;20056;-65
2022/07/14 14:33:22;;;;;;;2.47;0.90;;;;;;;;;;5101380;28;20048;-64
2022/07/14 14:35:49;;;;;;;5.63;1.20;;;;;;;;;;5100593;28;20048;-65
2022/07/14 14:38:15;;;;;;;4.40;1.10;;;;;;;;;;5093636;28;20559;-64
2022/07/14 14:40:42;;;;;;;2.72;0.60;;;;;;;;;;5104424;28;20091;-63
2022/07/14 14:43:12;;;;;;;3.72;0.57;;;;;;;;;;5107587;28;20063;-64
2022/07/14 14:45:42;;;;;;;3.45;0.80;;;;;;;;;;5093926;28;20118;-63
2022/07/14 14:48:08;;;;;;;2.70;0.68;;;;;;;;;;5105873;28;20071;-63
2022/07/14 14:50:35;;;;;;;4.68;1.35;;;;;;;;;;5100189;28;20129;-64
2022/07/14 14:53:05;;;;;;;1.73;0.50;;;;;;;;;;5097610;28;20092;-65
2022/07/14 14:55:31;;;;;;;3.25;0.70;;;;;;;;;;5114239;28;20068;-63
2022/07/14 14:57:57;;;;;;;3.25;0.98;;;;;;;;;;5113136;28;20130;-64
2022/07/14 15:00:23;;;;;;;2.47;0.68;;;;;;;;;;5108445;28;20059;-64
2022/07/14 15:02:49;;;;;;;7.43;0.82;;;;;;;;;;5087997;28;20131;-64
2022/07/14 15:05:15;;;;;;;3.05;0.70;;;;;;;;;;5105482;28;20076;-63
2022/07/14 15:07:42;;;;;;;2.65;0.75;;;;;;;;;;5107819;28;20159;-63